sensor_id;sensor_type;location;lat;lon;timestamp;P1;durP1;ratioP1;P2;durP2;ratioP2
73650;SDS011;61944;52.538;6.108;2023-04-01T00:00:03;8.30;;;3.97;;
73650;SDS011;61944;52.538;6.108;2023-04-01T00:02:29;4.60;;;4.03;;
73650;SDS011;61944;52.538;6.108;2023-04-01T00:04:55;7.18;;;3.67;;
73650;SDS011;61944;52.538;6.108;2023-04-01T00:07:20;7.45;;;3.30;;
73650;SDS011;61944;52.538;6.108;2023-04-01T00:09:45;6.43;;;3.60;;
73650;SDS011;61944;52.538;6.108;2023-04-01T00:12:11;7.43;;;4.32;;
73650;SDS011;61944;52.538;6.108;2023-04-01T00:14:36;5.95;;;3.63;;
73650;SDS011;61944;52.538;6.108;2023-04-01T00:17:02;4.75;;;3.45;;
73650;SDS011;61944;52.538;6.108;2023-04-01T00:19:28;9.60;;;5.25;;
73650;SDS011;61944;52.538;6.108;2023-04-01T00:21:53;5.18;;;4.10;;
73650;SDS011;61944;52.538;6.108;2023-04-01T00:24:19;4.72;;;3.80;;
73650;SDS011;61944;52.538;6.108;2023-04-01T00:26:44;4.35;;;3.00;;
73650;SDS011;61944;52.538;6.108;2023-04-01T00:29:10;5.53;;;3.85;;
73650;SDS011;61944;52.538;6.108;2023-04-01T00:31:35;7.65;;;4.10;;
73650;SDS011;61944;52.538;6.108;2023-04-01T00:34:00;6.63;;;3.70;;
73650;SDS011;61944;52.538;6.108;2023-04-01T00:36:26;6.80;;;4.38;;
73650;SDS011;61944;52.538;6.108;2023-04-01T00:38:51;9.00;;;4.35;;
73650;SDS011;61944;52.538;6.108;2023-04-01T00:41:17;5.70;;;3.78;;
73650;SDS011;61944;52.538;6.108;2023-04-01T00:43:47;8.73;;;4.68;;
73650;SDS011;61944;52.538;6.108;2023-04-01T00:46:15;8.85;;;4.13;;
73650;SDS011;61944;52.538;6.108;2023-04-01T00:48:45;7.15;;;4.35;;
73650;SDS011;61944;52.538;6.108;2023-04-01T00:51:25;5.95;;;3.80;;
73650;SDS011;61944;52.538;6.108;2023-04-01T00:53:55;5.32;;;3.85;;
73650;SDS011;61944;52.538;6.108;2023-04-01T00:56:27;6.50;;;4.32;;
73650;SDS011;61944;52.538;6.108;2023-04-01T00:58:58;6.90;;;4.70;;
73650;SDS011;61944;52.538;6.108;2023-04-01T01:01:26;6.22;;;3.50;;
73650;SDS011;61944;52.538;6.108;2023-04-01T01:03:54;7.05;;;4.28;;
73650;SDS011;61944;52.538;6.108;2023-04-01T01:12:00;7.68;;;4.72;;
73650;SDS011;61944;52.538;6.108;2023-04-01T01:17:25;5.90;;;4.07;;
73650;SDS011;61944;52.538;6.108;2023-04-01T01:22:52;5.55;;;3.97;;
73650;SDS011;61944;52.538;6.108;2023-04-01T01:34:19;9.10;;;5.38;;
73650;SDS011;61944;52.538;6.108;2023-04-01T01:37:08;7.32;;;4.85;;
73650;SDS011;61944;52.538;6.108;2023-04-01T01:39:37;7.32;;;4.30;;
73650;SDS011;61944;52.538;6.108;2023-04-01T01:42:07;7.28;;;3.97;;
73650;SDS011;61944;52.538;6.108;2023-04-01T01:44:36;6.78;;;4.45;;
73650;SDS011;61944;52.538;6.108;2023-04-01T01:47:03;6.78;;;4.45;;
73650;SDS011;61944;52.538;6.108;2023-04-01T01:49:30;7.22;;;4.28;;
73650;SDS011;61944;52.538;6.108;2023-04-01T01:51:58;10.57;;;5.85;;
73650;SDS011;61944;52.538;6.108;2023-04-01T01:54:25;12.88;;;7.40;;
73650;SDS011;61944;52.538;6.108;2023-04-01T01:56:55;8.93;;;5.20;;
73650;SDS011;61944;52.538;6.108;2023-04-01T01:59:29;11.82;;;6.53;;
73650;SDS011;61944;52.538;6.108;2023-04-01T02:01:57;15.40;;;7.75;;
73650;SDS011;61944;52.538;6.108;2023-04-01T02:04:24;11.38;;;7.25;;
73650;SDS011;61944;52.538;6.108;2023-04-01T02:06:58;15.68;;;6.88;;
73650;SDS011;61944;52.538;6.108;2023-04-01T02:09:27;11.00;;;7.07;;
73650;SDS011;61944;52.538;6.108;2023-04-01T02:11:59;15.00;;;7.03;;
73650;SDS011;61944;52.538;6.108;2023-04-01T02:17:07;17.27;;;8.23;;
73650;SDS011;61944;52.538;6.108;2023-04-01T02:19:39;14.18;;;7.38;;
73650;SDS011;61944;52.538;6.108;2023-04-01T02:22:12;12.15;;;7.00;;
73650;SDS011;61944;52.538;6.108;2023-04-01T02:24:41;10.30;;;5.40;;
73650;SDS011;61944;52.538;6.108;2023-04-01T02:27:11;14.48;;;7.45;;
73650;SDS011;61944;52.538;6.108;2023-04-01T02:29:38;20.55;;;8.90;;
73650;SDS011;61944;52.538;6.108;2023-04-01T02:32:03;15.50;;;7.50;;
73650;SDS011;61944;52.538;6.108;2023-04-01T02:34:31;13.23;;;7.43;;
73650;SDS011;61944;52.538;6.108;2023-04-01T02:36:57;21.65;;;8.90;;
73650;SDS011;61944;52.538;6.108;2023-04-01T02:39:22;12.52;;;7.10;;
73650;SDS011;61944;52.538;6.108;2023-04-01T02:41:50;15.95;;;7.57;;
73650;SDS011;61944;52.538;6.108;2023-04-01T02:44:15;12.48;;;6.50;;
73650;SDS011;61944;52.538;6.108;2023-04-01T02:46:41;11.88;;;7.00;;
73650;SDS011;61944;52.538;6.108;2023-04-01T02:49:06;18.00;;;7.47;;
73650;SDS011;61944;52.538;6.108;2023-04-01T02:51:32;21.98;;;8.85;;
73650;SDS011;61944;52.538;6.108;2023-04-01T02:53:58;14.57;;;7.15;;
73650;SDS011;61944;52.538;6.108;2023-04-01T02:56:23;17.65;;;8.45;;
73650;SDS011;61944;52.538;6.108;2023-04-01T02:58:50;12.77;;;6.72;;
73650;SDS011;61944;52.538;6.108;2023-04-01T03:01:15;19.23;;;8.27;;
73650;SDS011;61944;52.538;6.108;2023-04-01T03:03:41;16.08;;;8.25;;
73650;SDS011;61944;52.538;6.108;2023-04-01T03:06:07;14.75;;;7.85;;
73650;SDS011;61944;52.538;6.108;2023-04-01T03:08:34;18.48;;;8.50;;
73650;SDS011;61944;52.538;6.108;2023-04-01T03:10:59;13.43;;;7.45;;
73650;SDS011;61944;52.538;6.108;2023-04-01T03:13:25;12.07;;;6.78;;
73650;SDS011;61944;52.538;6.108;2023-04-01T03:15:51;12.23;;;6.10;;
73650;SDS011;61944;52.538;6.108;2023-04-01T03:18:16;17.70;;;8.23;;
73650;SDS011;61944;52.538;6.108;2023-04-01T03:20:42;19.00;;;8.38;;
73650;SDS011;61944;52.538;6.108;2023-04-01T03:23:08;16.27;;;8.63;;
73650;SDS011;61944;52.538;6.108;2023-04-01T03:25:33;15.70;;;6.82;;
73650;SDS011;61944;52.538;6.108;2023-04-01T03:27:58;17.50;;;7.53;;
73650;SDS011;61944;52.538;6.108;2023-04-01T03:30:25;17.55;;;8.45;;
73650;SDS011;61944;52.538;6.108;2023-04-01T03:32:51;14.45;;;7.97;;
73650;SDS011;61944;52.538;6.108;2023-04-01T03:35:17;16.77;;;8.95;;
73650;SDS011;61944;52.538;6.108;2023-04-01T03:37:43;14.93;;;7.95;;
73650;SDS011;61944;52.538;6.108;2023-04-01T03:40:09;14.98;;;8.23;;
73650;SDS011;61944;52.538;6.108;2023-04-01T03:42:34;14.98;;;7.95;;
73650;SDS011;61944;52.538;6.108;2023-04-01T03:45:00;22.98;;;10.82;;
73650;SDS011;61944;52.538;6.108;2023-04-01T03:47:26;21.48;;;9.23;;
73650;SDS011;61944;52.538;6.108;2023-04-01T03:49:51;20.15;;;9.45;;
73650;SDS011;61944;52.538;6.108;2023-04-01T03:52:17;16.75;;;8.05;;
73650;SDS011;61944;52.538;6.108;2023-04-01T03:54:42;17.95;;;9.50;;
73650;SDS011;61944;52.538;6.108;2023-04-01T03:57:07;14.32;;;7.55;;
73650;SDS011;61944;52.538;6.108;2023-04-01T03:59:33;20.70;;;8.52;;
73650;SDS011;61944;52.538;6.108;2023-04-01T04:01:59;18.33;;;9.00;;
73650;SDS011;61944;52.538;6.108;2023-04-01T04:04:24;16.60;;;8.00;;
73650;SDS011;61944;52.538;6.108;2023-04-01T04:06:51;16.92;;;10.05;;
73650;SDS011;61944;52.538;6.108;2023-04-01T04:09:16;15.60;;;7.60;;
73650;SDS011;61944;52.538;6.108;2023-04-01T04:11:41;18.65;;;9.27;;
73650;SDS011;61944;52.538;6.108;2023-04-01T04:14:07;17.05;;;8.38;;
73650;SDS011;61944;52.538;6.108;2023-04-01T04:16:34;19.92;;;10.50;;
73650;SDS011;61944;52.538;6.108;2023-04-01T04:19:01;22.13;;;9.63;;
73650;SDS011;61944;52.538;6.108;2023-04-01T04:21:27;14.95;;;7.75;;
73650;SDS011;61944;52.538;6.108;2023-04-01T04:23:52;15.40;;;8.88;;
73650;SDS011;61944;52.538;6.108;2023-04-01T04:26:18;20.67;;;8.95;;
73650;SDS011;61944;52.538;6.108;2023-04-01T04:28:43;17.08;;;7.53;;
73650;SDS011;61944;52.538;6.108;2023-04-01T04:31:09;20.15;;;8.43;;
73650;SDS011;61944;52.538;6.108;2023-04-01T04:33:34;20.75;;;8.80;;
73650;SDS011;61944;52.538;6.108;2023-04-01T04:36:00;16.25;;;8.63;;
73650;SDS011;61944;52.538;6.108;2023-04-01T04:38:26;22.02;;;11.20;;
73650;SDS011;61944;52.538;6.108;2023-04-01T04:40:52;18.38;;;8.88;;
73650;SDS011;61944;52.538;6.108;2023-04-01T04:43:18;16.65;;;8.07;;
73650;SDS011;61944;52.538;6.108;2023-04-01T04:45:44;20.42;;;9.23;;
73650;SDS011;61944;52.538;6.108;2023-04-01T04:48:10;21.08;;;9.88;;
73650;SDS011;61944;52.538;6.108;2023-04-01T04:50:41;16.20;;;7.47;;
73650;SDS011;61944;52.538;6.108;2023-04-01T04:53:06;17.10;;;8.43;;
73650;SDS011;61944;52.538;6.108;2023-04-01T04:55:34;20.88;;;8.90;;
73650;SDS011;61944;52.538;6.108;2023-04-01T04:57:59;18.30;;;8.65;;
73650;SDS011;61944;52.538;6.108;2023-04-01T05:00:25;15.77;;;8.50;;
73650;SDS011;61944;52.538;6.108;2023-04-01T05:02:53;17.50;;;9.88;;
73650;SDS011;61944;52.538;6.108;2023-04-01T05:05:19;16.90;;;8.27;;
73650;SDS011;61944;52.538;6.108;2023-04-01T05:07:44;23.65;;;8.65;;
73650;SDS011;61944;52.538;6.108;2023-04-01T05:10:09;16.02;;;8.10;;
73650;SDS011;61944;52.538;6.108;2023-04-01T05:12:35;21.80;;;10.55;;
73650;SDS011;61944;52.538;6.108;2023-04-01T05:15:04;20.00;;;9.52;;
73650;SDS011;61944;52.538;6.108;2023-04-01T05:17:30;21.13;;;10.23;;
73650;SDS011;61944;52.538;6.108;2023-04-01T05:19:56;20.17;;;9.13;;
73650;SDS011;61944;52.538;6.108;2023-04-01T05:22:21;21.42;;;9.77;;
73650;SDS011;61944;52.538;6.108;2023-04-01T05:24:47;16.50;;;7.88;;
73650;SDS011;61944;52.538;6.108;2023-04-01T05:27:12;21.02;;;9.50;;
73650;SDS011;61944;52.538;6.108;2023-04-01T05:29:37;18.63;;;9.07;;
73650;SDS011;61944;52.538;6.108;2023-04-01T05:32:03;13.45;;;7.63;;
73650;SDS011;61944;52.538;6.108;2023-04-01T05:34:28;14.95;;;7.05;;
73650;SDS011;61944;52.538;6.108;2023-04-01T05:36:54;15.18;;;7.95;;
73650;SDS011;61944;52.538;6.108;2023-04-01T05:39:19;15.50;;;7.78;;
73650;SDS011;61944;52.538;6.108;2023-04-01T05:41:44;18.83;;;7.35;;
73650;SDS011;61944;52.538;6.108;2023-04-01T05:44:11;17.98;;;7.95;;
73650;SDS011;61944;52.538;6.108;2023-04-01T05:46:37;16.60;;;7.93;;
73650;SDS011;61944;52.538;6.108;2023-04-01T05:49:02;14.15;;;7.43;;
73650;SDS011;61944;52.538;6.108;2023-04-01T05:51:28;17.95;;;8.52;;
73650;SDS011;61944;52.538;6.108;2023-04-01T05:53:53;16.13;;;8.13;;
73650;SDS011;61944;52.538;6.108;2023-04-01T05:56:18;15.98;;;7.63;;
73650;SDS011;61944;52.538;6.108;2023-04-01T05:58:46;16.70;;;8.32;;
73650;SDS011;61944;52.538;6.108;2023-04-01T06:01:15;14.63;;;7.38;;
73650;SDS011;61944;52.538;6.108;2023-04-01T06:03:41;14.07;;;7.95;;
73650;SDS011;61944;52.538;6.108;2023-04-01T06:06:11;15.35;;;8.02;;
73650;SDS011;61944;52.538;6.108;2023-04-01T06:08:40;14.48;;;6.70;;
73650;SDS011;61944;52.538;6.108;2023-04-01T06:11:12;20.55;;;11.18;;
73650;SDS011;61944;52.538;6.108;2023-04-01T06:36:32;15.88;;;7.85;;
73650;SDS011;61944;52.538;6.108;2023-04-01T06:44:44;18.80;;;8.13;;
73650;SDS011;61944;52.538;6.108;2023-04-01T06:48:09;15.93;;;7.70;;
73650;SDS011;61944;52.538;6.108;2023-04-01T06:50:59;16.67;;;7.50;;
73650;SDS011;61944;52.538;6.108;2023-04-01T06:53:46;14.93;;;6.90;;
73650;SDS011;61944;52.538;6.108;2023-04-01T06:56:28;19.25;;;7.50;;
73650;SDS011;61944;52.538;6.108;2023-04-01T06:59:17;12.23;;;5.65;;
73650;SDS011;61944;52.538;6.108;2023-04-01T07:01:47;12.95;;;6.38;;
73650;SDS011;61944;52.538;6.108;2023-04-01T07:06:46;9.18;;;4.15;;
73650;SDS011;61944;52.538;6.108;2023-04-01T07:09:28;11.55;;;4.55;;
73650;SDS011;61944;52.538;6.108;2023-04-01T07:12:00;4.93;;;3.45;;
73650;SDS011;61944;52.538;6.108;2023-04-01T07:14:38;11.07;;;4.60;;
73650;SDS011;61944;52.538;6.108;2023-04-01T07:17:11;8.10;;;3.80;;
73650;SDS011;61944;52.538;6.108;2023-04-01T07:19:44;10.20;;;4.88;;
73650;SDS011;61944;52.538;6.108;2023-04-01T07:22:42;10.30;;;5.65;;
73650;SDS011;61944;52.538;6.108;2023-04-01T07:25:17;11.68;;;5.40;;
73650;SDS011;61944;52.538;6.108;2023-04-01T07:27:47;13.83;;;4.67;;
73650;SDS011;61944;52.538;6.108;2023-04-01T07:30:16;30.30;;;7.80;;
73650;SDS011;61944;52.538;6.108;2023-04-01T07:33:04;10.48;;;5.90;;
73650;SDS011;61944;52.538;6.108;2023-04-01T07:35:46;12.90;;;4.93;;
73650;SDS011;61944;52.538;6.108;2023-04-01T07:44:18;11.60;;;4.55;;
73650;SDS011;61944;52.538;6.108;2023-04-01T07:49:30;8.80;;;4.97;;
73650;SDS011;61944;52.538;6.108;2023-04-01T07:55:14;9.15;;;3.97;;
73650;SDS011;61944;52.538;6.108;2023-04-01T08:03:21;3.65;;;2.35;;
73650;SDS011;61944;52.538;6.108;2023-04-01T08:08:43;1.92;;;1.35;;
73650;SDS011;61944;52.538;6.108;2023-04-01T08:14:46;4.43;;;1.80;;
73650;SDS011;61944;52.538;6.108;2023-04-01T08:20:02;5.47;;;2.40;;
73650;SDS011;61944;52.538;6.108;2023-04-01T08:22:46;10.68;;;3.25;;
73650;SDS011;61944;52.538;6.108;2023-04-01T08:25:33;6.63;;;3.50;;
73650;SDS011;61944;52.538;6.108;2023-04-01T08:28:10;7.35;;;3.58;;
73650;SDS011;61944;52.538;6.108;2023-04-01T08:33:32;6.90;;;3.15;;
73650;SDS011;61944;52.538;6.108;2023-04-01T08:36:08;6.00;;;2.85;;
73650;SDS011;61944;52.538;6.108;2023-04-01T08:46:56;10.52;;;3.17;;
73650;SDS011;61944;52.538;6.108;2023-04-01T08:52:37;6.75;;;3.25;;
73650;SDS011;61944;52.538;6.108;2023-04-01T08:58:18;8.23;;;3.67;;
73650;SDS011;61944;52.538;6.108;2023-04-01T09:01:26;6.75;;;3.58;;
73650;SDS011;61944;52.538;6.108;2023-04-01T09:07:28;8.07;;;4.28;;
73650;SDS011;61944;52.538;6.108;2023-04-01T09:12:19;11.85;;;5.43;;
73650;SDS011;61944;52.538;6.108;2023-04-01T09:15:23;9.73;;;5.20;;
73650;SDS011;61944;52.538;6.108;2023-04-01T09:20:42;9.20;;;4.82;;
73650;SDS011;61944;52.538;6.108;2023-04-01T09:28:42;8.30;;;4.57;;
73650;SDS011;61944;52.538;6.108;2023-04-01T09:31:21;8.30;;;3.80;;
73650;SDS011;61944;52.538;6.108;2023-04-01T09:33:59;8.98;;;4.55;;
73650;SDS011;61944;52.538;6.108;2023-04-01T09:42:37;6.85;;;3.65;;
73650;SDS011;61944;52.538;6.108;2023-04-01T09:45:14;9.50;;;4.93;;
73650;SDS011;61944;52.538;6.108;2023-04-01T09:54:20;8.53;;;3.80;;
73650;SDS011;61944;52.538;6.108;2023-04-01T10:08:33;7.68;;;3.75;;
73650;SDS011;61944;52.538;6.108;2023-04-01T10:17:51;6.88;;;3.28;;
73650;SDS011;61944;52.538;6.108;2023-04-01T10:36:56;4.63;;;3.00;;
73650;SDS011;61944;52.538;6.108;2023-04-01T10:51:00;4.13;;;2.50;;
73650;SDS011;61944;52.538;6.108;2023-04-01T11:00:01;3.38;;;2.78;;
73650;SDS011;61944;52.538;6.108;2023-04-01T11:27:04;5.32;;;3.25;;
73650;SDS011;61944;52.538;6.108;2023-04-01T11:41:17;5.75;;;3.40;;
73650;SDS011;61944;52.538;6.108;2023-04-01T11:43:55;4.55;;;3.28;;
73650;SDS011;61944;52.538;6.108;2023-04-01T11:46:39;7.75;;;3.40;;
73650;SDS011;61944;52.538;6.108;2023-04-01T11:58:37;8.00;;;4.00;;
73650;SDS011;61944;52.538;6.108;2023-04-01T12:01:40;8.13;;;4.03;;
73650;SDS011;61944;52.538;6.108;2023-04-01T12:07:45;10.45;;;5.63;;
73650;SDS011;61944;52.538;6.108;2023-04-01T12:13:42;9.00;;;5.82;;
73650;SDS011;61944;52.538;6.108;2023-04-01T12:16:15;11.27;;;6.43;;
73650;SDS011;61944;52.538;6.108;2023-04-01T12:21:36;8.55;;;5.50;;
73650;SDS011;61944;52.538;6.108;2023-04-01T12:37:56;10.70;;;6.70;;
73650;SDS011;61944;52.538;6.108;2023-04-01T12:59:24;9.27;;;5.82;;
73650;SDS011;61944;52.538;6.108;2023-04-01T13:02:01;9.93;;;6.38;;
73650;SDS011;61944;52.538;6.108;2023-04-01T13:18:41;8.60;;;5.57;;
73650;SDS011;61944;52.538;6.108;2023-04-01T13:24:07;10.20;;;6.63;;
73650;SDS011;61944;52.538;6.108;2023-04-01T13:35:23;8.35;;;5.82;;
73650;SDS011;61944;52.538;6.108;2023-04-01T13:40:58;7.15;;;4.93;;
73650;SDS011;61944;52.538;6.108;2023-04-01T13:43:31;8.85;;;5.53;;
73650;SDS011;61944;52.538;6.108;2023-04-01T13:48:29;6.75;;;4.38;;
73650;SDS011;61944;52.538;6.108;2023-04-01T13:54:09;8.10;;;5.32;;
73650;SDS011;61944;52.538;6.108;2023-04-01T13:59:29;8.73;;;4.35;;
73650;SDS011;61944;52.538;6.108;2023-04-01T14:14:18;9.25;;;4.75;;
73650;SDS011;61944;52.538;6.108;2023-04-01T14:27:35;8.95;;;5.18;;
73650;SDS011;61944;52.538;6.108;2023-04-01T14:33:15;6.85;;;4.75;;
73650;SDS011;61944;52.538;6.108;2023-04-01T14:38:39;5.50;;;4.15;;
73650;SDS011;61944;52.538;6.108;2023-04-01T14:49:32;6.63;;;4.93;;
73650;SDS011;61944;52.538;6.108;2023-04-01T14:54:42;9.38;;;5.10;;
73650;SDS011;61944;52.538;6.108;2023-04-01T14:57:23;6.25;;;4.82;;
73650;SDS011;61944;52.538;6.108;2023-04-01T14:59:54;7.35;;;4.53;;
73650;SDS011;61944;52.538;6.108;2023-04-01T15:08:21;24.23;;;17.98;;
73650;SDS011;61944;52.538;6.108;2023-04-01T15:11:04;9.38;;;6.10;;
73650;SDS011;61944;52.538;6.108;2023-04-01T15:13:58;8.25;;;5.95;;
73650;SDS011;61944;52.538;6.108;2023-04-01T15:22:41;7.85;;;4.93;;
73650;SDS011;61944;52.538;6.108;2023-04-01T15:25:45;7.85;;;4.82;;
73650;SDS011;61944;52.538;6.108;2023-04-01T15:28:28;8.00;;;4.93;;
73650;SDS011;61944;52.538;6.108;2023-04-01T15:31:11;5.28;;;4.43;;
73650;SDS011;61944;52.538;6.108;2023-04-01T15:38:52;4.75;;;3.47;;
73650;SDS011;61944;52.538;6.108;2023-04-01T15:58:38;4.93;;;3.97;;
73650;SDS011;61944;52.538;6.108;2023-04-01T16:01:16;4.85;;;3.45;;
73650;SDS011;61944;52.538;6.108;2023-04-01T16:14:58;5.15;;;3.78;;
73650;SDS011;61944;52.538;6.108;2023-04-01T16:20:19;5.72;;;4.07;;
73650;SDS011;61944;52.538;6.108;2023-04-01T16:25:36;4.00;;;3.42;;
73650;SDS011;61944;52.538;6.108;2023-04-01T16:39:35;4.97;;;4.10;;
73650;SDS011;61944;52.538;6.108;2023-04-01T16:45:17;4.90;;;4.15;;
73650;SDS011;61944;52.538;6.108;2023-04-01T16:47:50;8.10;;;6.00;;
73650;SDS011;61944;52.538;6.108;2023-04-01T16:50:22;5.40;;;4.30;;
73650;SDS011;61944;52.538;6.108;2023-04-01T16:53:00;5.78;;;3.50;;
73650;SDS011;61944;52.538;6.108;2023-04-01T16:55:43;4.85;;;4.25;;
73650;SDS011;61944;52.538;6.108;2023-04-01T17:07:41;3.65;;;3.33;;
73650;SDS011;61944;52.538;6.108;2023-04-01T17:12:28;5.13;;;4.45;;
73650;SDS011;61944;52.538;6.108;2023-04-01T17:15:05;5.28;;;3.58;;
73650;SDS011;61944;52.538;6.108;2023-04-01T17:17:45;3.95;;;3.35;;
73650;SDS011;61944;52.538;6.108;2023-04-01T17:20:26;4.68;;;4.15;;
73650;SDS011;61944;52.538;6.108;2023-04-01T17:23:28;4.25;;;3.50;;
73650;SDS011;61944;52.538;6.108;2023-04-01T17:28:52;3.72;;;3.13;;
73650;SDS011;61944;52.538;6.108;2023-04-01T17:37:19;3.63;;;3.33;;
73650;SDS011;61944;52.538;6.108;2023-04-01T17:45:11;3.45;;;3.08;;
73650;SDS011;61944;52.538;6.108;2023-04-01T17:48:08;3.70;;;2.92;;
73650;SDS011;61944;52.538;6.108;2023-04-01T17:53:19;3.78;;;3.17;;
73650;SDS011;61944;52.538;6.108;2023-04-01T18:06:13;3.63;;;3.10;;
73650;SDS011;61944;52.538;6.108;2023-04-01T18:08:58;4.50;;;4.10;;
73650;SDS011;61944;52.538;6.108;2023-04-01T18:14:27;4.03;;;3.55;;
73650;SDS011;61944;52.538;6.108;2023-04-01T18:22:45;6.18;;;3.50;;
73650;SDS011;61944;52.538;6.108;2023-04-01T18:25:22;10.82;;;3.95;;
73650;SDS011;61944;52.538;6.108;2023-04-01T18:30:31;10.25;;;5.47;;
73650;SDS011;61944;52.538;6.108;2023-04-01T18:33:00;5.40;;;4.60;;
73650;SDS011;61944;52.538;6.108;2023-04-01T18:38:12;7.47;;;6.63;;
73650;SDS011;61944;52.538;6.108;2023-04-01T18:40:48;9.88;;;8.88;;
73650;SDS011;61944;52.538;6.108;2023-04-01T18:46:30;19.02;;;16.67;;
73650;SDS011;61944;52.538;6.108;2023-04-01T18:54:21;19.45;;;14.30;;
73650;SDS011;61944;52.538;6.108;2023-04-01T18:56:58;21.33;;;13.98;;
73650;SDS011;61944;52.538;6.108;2023-04-01T19:05:05;17.58;;;11.85;;
73650;SDS011;61944;52.538;6.108;2023-04-01T19:15:25;13.15;;;9.35;;
73650;SDS011;61944;52.538;6.108;2023-04-01T19:20:53;9.80;;;8.23;;
73650;SDS011;61944;52.538;6.108;2023-04-01T19:23:31;9.50;;;8.50;;
73650;SDS011;61944;52.538;6.108;2023-04-01T19:26:00;10.35;;;7.90;;
73650;SDS011;61944;52.538;6.108;2023-04-01T19:39:31;7.43;;;6.15;;
73650;SDS011;61944;52.538;6.108;2023-04-01T19:50:26;10.07;;;7.72;;
73650;SDS011;61944;52.538;6.108;2023-04-01T19:52:53;12.27;;;8.88;;
73650;SDS011;61944;52.538;6.108;2023-04-01T19:55:37;10.63;;;9.63;;
73650;SDS011;61944;52.538;6.108;2023-04-01T19:58:33;13.70;;;12.30;;
73650;SDS011;61944;52.538;6.108;2023-04-01T20:01:09;16.35;;;14.73;;
73650;SDS011;61944;52.538;6.108;2023-04-01T20:06:28;17.50;;;12.60;;
73650;SDS011;61944;52.538;6.108;2023-04-01T20:18:11;10.95;;;8.02;;
73650;SDS011;61944;52.538;6.108;2023-04-01T20:20:40;11.23;;;7.53;;
73650;SDS011;61944;52.538;6.108;2023-04-01T20:23:56;14.95;;;8.23;;
73650;SDS011;61944;52.538;6.108;2023-04-01T20:26:27;12.00;;;7.93;;
73650;SDS011;61944;52.538;6.108;2023-04-01T20:43:20;9.75;;;7.22;;
73650;SDS011;61944;52.538;6.108;2023-04-01T20:45:58;10.00;;;6.82;;
73650;SDS011;61944;52.538;6.108;2023-04-01T20:51:03;11.13;;;7.55;;
73650;SDS011;61944;52.538;6.108;2023-04-01T20:58:58;12.85;;;8.45;;
73650;SDS011;61944;52.538;6.108;2023-04-01T21:04:48;12.52;;;8.20;;
73650;SDS011;61944;52.538;6.108;2023-04-01T21:07:49;14.75;;;8.40;;
73650;SDS011;61944;52.538;6.108;2023-04-01T21:13:12;21.23;;;10.43;;
73650;SDS011;61944;52.538;6.108;2023-04-01T21:21:27;12.65;;;8.48;;
73650;SDS011;61944;52.538;6.108;2023-04-01T21:34:43;13.52;;;8.68;;
73650;SDS011;61944;52.538;6.108;2023-04-01T21:45:52;13.57;;;8.20;;
73650;SDS011;61944;52.538;6.108;2023-04-01T21:48:34;16.60;;;10.13;;
73650;SDS011;61944;52.538;6.108;2023-04-01T21:59:30;18.00;;;8.75;;
73650;SDS011;61944;52.538;6.108;2023-04-01T22:02:34;11.30;;;8.23;;
73650;SDS011;61944;52.538;6.108;2023-04-01T22:10:48;17.48;;;10.45;;
73650;SDS011;61944;52.538;6.108;2023-04-01T22:13:22;15.45;;;9.68;;
73650;SDS011;61944;52.538;6.108;2023-04-01T22:16:23;19.63;;;11.43;;
73650;SDS011;61944;52.538;6.108;2023-04-01T22:19:04;22.08;;;11.32;;
73650;SDS011;61944;52.538;6.108;2023-04-01T22:21:41;17.23;;;10.10;;
73650;SDS011;61944;52.538;6.108;2023-04-01T22:24:23;16.15;;;9.48;;
73650;SDS011;61944;52.538;6.108;2023-04-01T22:27:21;23.00;;;10.80;;
73650;SDS011;61944;52.538;6.108;2023-04-01T22:33:11;23.40;;;9.60;;
73650;SDS011;61944;52.538;6.108;2023-04-01T22:41:27;18.30;;;10.40;;
73650;SDS011;61944;52.538;6.108;2023-04-01T22:43:57;20.10;;;10.50;;
73650;SDS011;61944;52.538;6.108;2023-04-01T22:49:41;19.15;;;10.50;;
73650;SDS011;61944;52.538;6.108;2023-04-01T22:55:01;16.10;;;9.85;;
73650;SDS011;61944;52.538;6.108;2023-04-01T22:57:35;14.93;;;9.45;;
73650;SDS011;61944;52.538;6.108;2023-04-01T23:02:46;18.50;;;10.23;;
73650;SDS011;61944;52.538;6.108;2023-04-01T23:05:29;17.52;;;9.68;;
73650;SDS011;61944;52.538;6.108;2023-04-01T23:08:02;23.48;;;10.38;;
73650;SDS011;61944;52.538;6.108;2023-04-01T23:13:10;14.88;;;9.73;;
73650;SDS011;61944;52.538;6.108;2023-04-01T23:15:43;18.13;;;9.18;;
73650;SDS011;61944;52.538;6.108;2023-04-01T23:18:12;16.95;;;9.15;;
73650;SDS011;61944;52.538;6.108;2023-04-01T23:23:45;18.67;;;11.10;;
73650;SDS011;61944;52.538;6.108;2023-04-01T23:26:29;14.77;;;9.70;;
73650;SDS011;61944;52.538;6.108;2023-04-01T23:28:55;15.50;;;9.07;;
73650;SDS011;61944;52.538;6.108;2023-04-01T23:33:56;17.58;;;9.20;;
73650;SDS011;61944;52.538;6.108;2023-04-01T23:36:27;15.60;;;8.73;;
73650;SDS011;61944;52.538;6.108;2023-04-01T23:38:54;15.55;;;9.48;;
73650;SDS011;61944;52.538;6.108;2023-04-01T23:41:38;14.60;;;8.05;;
73650;SDS011;61944;52.538;6.108;2023-04-01T23:44:05;16.38;;;9.38;;
73650;SDS011;61944;52.538;6.108;2023-04-01T23:46:36;16.75;;;8.38;;
73650;SDS011;61944;52.538;6.108;2023-04-01T23:49:04;15.73;;;9.45;;
73650;SDS011;61944;52.538;6.108;2023-04-01T23:51:38;13.00;;;8.60;;
73650;SDS011;61944;52.538;6.108;2023-04-01T23:54:13;15.02;;;7.80;;
73650;SDS011;61944;52.538;6.108;2023-04-01T23:56:44;13.30;;;8.32;;
73650;SDS011;61944;52.538;6.108;2023-04-01T23:59:17;14.57;;;8.07;;
